createdAt,value
2022-11-13T00:01:40.329Z,11.77
2022-11-13T00:04:13.234Z,11.76
2022-11-13T00:06:48.889Z,11.78
2022-11-13T00:09:22.078Z,11.76
2022-11-13T00:11:55.259Z,11.78
2022-11-13T00:14:28.136Z,11.76
2022-11-13T00:17:01.006Z,11.77
2022-11-13T00:19:36.166Z,11.76
2022-11-13T00:22:10.449Z,11.77
2022-11-13T00:24:43.331Z,11.76
2022-11-13T00:27:16.168Z,11.75
2022-11-13T00:29:49.036Z,11.73
2022-11-13T00:32:22.108Z,11.73
2022-11-13T00:34:56.775Z,11.74
2022-11-13T00:37:30.992Z,11.77
2022-11-13T00:40:06.043Z,11.77
2022-11-13T00:42:38.848Z,11.79
2022-11-13T00:45:14.169Z,11.80
2022-11-13T00:47:47.335Z,11.84
2022-11-13T00:50:20.734Z,11.82
2022-11-13T00:52:55.054Z,11.82
2022-11-13T00:55:27.933Z,11.80
2022-11-13T00:58:00.742Z,11.81
2022-11-13T01:00:35.052Z,11.80
2022-11-13T01:03:07.997Z,11.79
2022-11-13T01:05:42.619Z,11.76
2022-11-13T01:08:17.408Z,11.75
2022-11-13T01:10:53.760Z,11.72
2022-11-13T01:13:26.862Z,11.69
2022-11-13T01:16:02.618Z,11.67
2022-11-13T01:18:35.550Z,11.64
2022-11-13T01:21:13.093Z,11.63
2022-11-13T01:23:49.571Z,11.63
2022-11-13T01:26:25.825Z,11.62
2022-11-13T01:29:00.300Z,11.61
2022-11-13T01:31:33.132Z,11.64
2022-11-13T01:34:05.982Z,11.65
2022-11-13T01:36:39.067Z,11.70
2022-11-13T01:39:14.027Z,11.72
2022-11-13T01:41:46.818Z,11.73
2022-11-13T01:44:24.322Z,11.76
2022-11-13T01:46:58.200Z,11.79
2022-11-13T01:49:35.906Z,11.84
2022-11-13T01:52:12.233Z,11.86
2022-11-13T01:54:53.901Z,11.88
2022-11-13T01:57:26.812Z,11.85
2022-11-13T02:00:04.102Z,11.87
2022-11-13T02:02:37.847Z,11.84
2022-11-13T02:05:10.686Z,11.84
2022-11-13T02:07:43.781Z,11.80
2022-11-13T02:10:18.299Z,11.82
2022-11-13T02:12:52.776Z,11.83
2022-11-13T02:15:27.837Z,11.84
2022-11-13T02:18:03.553Z,11.85
2022-11-13T02:20:43.127Z,11.89
2022-11-13T02:23:22.154Z,11.90
2022-11-13T02:25:56.350Z,11.94
2022-11-13T02:28:29.367Z,11.96
2022-11-13T02:31:08.748Z,11.98
2022-11-13T02:33:42.957Z,11.99
2022-11-13T02:36:16.899Z,12.00
2022-11-13T02:38:55.611Z,12.04
2022-11-13T02:41:29.870Z,12.02
2022-11-13T02:44:02.668Z,12.02
2022-11-13T02:46:35.757Z,12.03
2022-11-13T02:49:08.941Z,12.04
2022-11-13T02:51:41.722Z,12.03
2022-11-13T02:54:17.364Z,12.03
2022-11-13T02:56:51.849Z,12.03
2022-11-13T02:59:24.786Z,12.03
2022-11-13T03:01:57.579Z,12.03
2022-11-13T03:04:44.231Z,12.01
2022-11-13T03:07:23.348Z,12.01
2022-11-13T03:09:56.928Z,12.02
2022-11-13T03:12:31.127Z,12.00
2022-11-13T03:15:04.451Z,11.97
2022-11-13T03:17:37.285Z,11.94
2022-11-13T03:20:10.942Z,11.94
2022-11-13T03:22:43.743Z,11.90
2022-11-13T03:25:16.697Z,11.88
2022-11-13T03:27:50.931Z,11.86
2022-11-13T03:30:24.273Z,11.83
2022-11-13T03:32:58.152Z,11.78
2022-11-13T03:35:34.846Z,11.75
2022-11-13T03:38:12.351Z,11.71
2022-11-13T03:40:45.704Z,11.65
2022-11-13T03:43:20.637Z,11.61
2022-11-13T03:45:53.520Z,11.57
2022-11-13T03:48:26.753Z,11.56
2022-11-13T03:51:00.036Z,11.53
2022-11-13T03:53:32.969Z,11.49
2022-11-13T03:56:07.110Z,11.45
2022-11-13T03:58:44.683Z,11.43
2022-11-13T04:01:20.207Z,11.38
2022-11-13T04:03:53.064Z,11.36
2022-11-13T04:06:25.901Z,11.34
2022-11-13T04:08:58.735Z,11.33
2022-11-13T04:11:31.615Z,11.32
2022-11-13T04:14:06.223Z,11.31
2022-11-13T04:16:39.071Z,11.29
2022-11-13T04:19:11.908Z,11.28
2022-11-13T04:21:45.133Z,11.28
2022-11-13T04:24:18.330Z,11.27
2022-11-13T04:26:51.431Z,11.25
2022-11-13T04:29:25.587Z,11.24
2022-11-13T04:31:58.549Z,11.20
2022-11-13T04:34:32.395Z,11.19
2022-11-13T04:37:05.861Z,11.17
2022-11-13T04:39:38.634Z,11.16
2022-11-13T04:42:29.306Z,11.13
2022-11-13T04:45:03.580Z,11.12
2022-11-13T04:47:36.517Z,11.09
2022-11-13T04:50:10.163Z,11.06
2022-11-13T04:52:43.858Z,11.03
2022-11-13T04:55:16.782Z,11.01
2022-11-13T04:57:51.676Z,10.97
2022-11-13T05:00:25.919Z,10.95
2022-11-13T05:02:59.058Z,10.91
2022-11-13T05:05:31.961Z,10.89
2022-11-13T05:08:05.105Z,10.84
2022-11-13T05:10:38.242Z,10.81
2022-11-13T05:13:11.102Z,10.78
2022-11-13T05:15:45.328Z,10.78
2022-11-13T05:18:18.319Z,10.74
2022-11-13T05:20:51.157Z,10.70
2022-11-13T05:23:23.979Z,10.69
2022-11-13T05:26:02.603Z,10.66
2022-11-13T05:28:37.597Z,10.63
2022-11-13T05:31:14.373Z,10.64
2022-11-13T05:33:48.072Z,10.61
2022-11-13T05:36:21.259Z,10.59
2022-11-13T05:38:54.102Z,10.59
2022-11-13T05:41:27.200Z,10.58
2022-11-13T05:44:00.342Z,10.59
2022-11-13T05:46:36.052Z,10.60
2022-11-13T05:49:11.021Z,10.58
2022-11-13T05:51:43.845Z,10.61
2022-11-13T05:54:16.921Z,10.61
2022-11-13T05:56:49.734Z,10.60
2022-11-13T05:59:22.617Z,10.60
2022-11-13T06:01:56.816Z,10.61
2022-11-13T06:04:30.166Z,10.57
2022-11-13T06:07:02.990Z,10.57
2022-11-13T06:09:36.040Z,10.55
2022-11-13T06:12:09.415Z,10.55
2022-11-13T06:14:42.314Z,10.54
2022-11-13T06:17:16.924Z,10.52
2022-11-13T06:19:49.825Z,10.52
2022-11-13T06:22:22.598Z,10.51
2022-11-13T06:24:55.649Z,10.53
2022-11-13T06:27:28.877Z,10.52
2022-11-13T06:30:06.653Z,10.53
2022-11-13T06:32:40.843Z,10.55
2022-11-13T06:35:13.719Z,10.54
2022-11-13T06:37:47.131Z,10.55
2022-11-13T06:40:20.056Z,10.56
2022-11-13T06:42:54.179Z,10.55
2022-11-13T06:45:27.073Z,10.55
2022-11-13T06:48:01.336Z,10.55
2022-11-13T06:50:34.231Z,10.51
2022-11-13T06:53:07.235Z,10.49
2022-11-13T06:55:44.198Z,10.51
2022-11-13T06:58:17.574Z,10.49
2022-11-13T07:00:50.552Z,10.46
2022-11-13T07:03:28.208Z,10.48
2022-11-13T07:06:03.659Z,10.45
2022-11-13T07:08:36.862Z,10.45
2022-11-13T07:11:12.289Z,10.45
2022-11-13T07:13:45.707Z,10.46
2022-11-13T07:16:19.126Z,10.44
2022-11-13T07:18:54.644Z,10.44
2022-11-13T07:21:27.475Z,10.42
2022-11-13T07:24:00.276Z,10.41
2022-11-13T07:26:33.205Z,10.39
2022-11-13T07:29:06.012Z,10.39
2022-11-13T07:31:38.846Z,10.38
2022-11-13T07:34:14.768Z,10.40
2022-11-13T07:36:47.957Z,10.38
2022-11-13T07:39:21.028Z,10.39
2022-11-13T07:41:57.426Z,10.38
2022-11-13T07:44:53.577Z,10.35
2022-11-13T07:47:23.450Z,10.36
2022-11-13T07:50:04.407Z,10.36
2022-11-13T07:52:41.149Z,10.35
2022-11-13T07:55:14.011Z,10.35
2022-11-13T07:57:46.913Z,10.32
2022-11-13T08:00:20.248Z,10.32
2022-11-13T08:02:53.219Z,10.32
2022-11-13T08:05:27.486Z,10.33
2022-11-13T08:08:00.342Z,10.32
2022-11-13T08:10:33.972Z,10.34
2022-11-13T08:13:08.471Z,10.36
2022-11-13T08:15:41.323Z,10.36
2022-11-13T08:18:14.162Z,10.37
2022-11-13T08:20:48.474Z,10.41
2022-11-13T08:23:21.365Z,10.40
2022-11-13T08:25:54.596Z,10.41
2022-11-13T08:28:27.672Z,10.43
2022-11-13T08:31:00.946Z,10.45
2022-11-13T08:33:33.775Z,10.47
2022-11-13T08:36:08.984Z,10.52
2022-11-13T08:38:41.884Z,10.51
2022-11-13T08:41:14.797Z,10.56
2022-11-13T08:43:48.661Z,10.58
2022-11-13T08:46:23.799Z,10.61
2022-11-13T08:48:57.973Z,10.64
2022-11-13T08:51:32.190Z,10.68
2022-11-13T08:54:05.678Z,10.71
2022-11-13T08:56:38.562Z,10.74
2022-11-13T08:59:12.050Z,10.78
2022-11-13T09:01:47.417Z,10.82
2022-11-13T09:04:22.911Z,10.84
2022-11-13T09:06:57.567Z,10.90
2022-11-13T09:09:30.588Z,10.91
2022-11-13T09:12:03.409Z,10.92
2022-11-13T09:14:37.159Z,10.94
2022-11-13T09:17:09.980Z,10.94
2022-11-13T09:19:43.014Z,10.93
2022-11-13T09:22:17.169Z,10.95
2022-11-13T09:24:50.132Z,10.93
2022-11-13T09:27:24.323Z,10.95
2022-11-13T09:29:57.517Z,10.95
2022-11-13T09:32:30.500Z,10.96
2022-11-13T09:35:03.388Z,10.98
2022-11-13T09:37:38.864Z,10.96
2022-11-13T09:40:28.302Z,11.01
2022-11-13T09:43:03.255Z,11.03
2022-11-13T09:45:36.379Z,11.04
2022-11-13T09:48:20.355Z,11.08
2022-11-13T09:50:54.121Z,11.10
2022-11-13T09:53:34.397Z,11.13
2022-11-13T09:56:20.593Z,11.18
2022-11-13T09:59:01.806Z,11.17
2022-11-13T10:01:48.858Z,11.19
2022-11-13T10:04:30.763Z,11.22
2022-11-13T10:07:13.771Z,11.25
2022-11-13T10:10:02.705Z,11.34
2022-11-13T10:12:36.326Z,11.39
2022-11-13T10:15:12.312Z,11.46
2022-11-13T10:17:50.385Z,11.50
2022-11-13T10:20:26.597Z,11.57
2022-11-13T10:23:08.493Z,11.63
2022-11-13T10:25:44.968Z,11.69
2022-11-13T10:31:16.332Z,11.89
2022-11-13T10:33:52.634Z,11.96
2022-11-13T10:36:38.125Z,12.07
2022-11-13T10:39:14.490Z,12.12
2022-11-13T10:41:51.059Z,12.20
2022-11-13T10:44:27.240Z,12.23
2022-11-13T10:47:14.236Z,12.30
2022-11-13T10:49:47.091Z,12.32
2022-11-13T10:52:22.617Z,12.32
2022-11-13T10:55:18.404Z,12.35
2022-11-13T10:58:01.953Z,12.38
2022-11-13T11:00:36.813Z,12.36
2022-11-13T11:03:10.437Z,12.38
2022-11-13T11:05:53.659Z,12.40
2022-11-13T11:08:31.620Z,12.39
2022-11-13T11:11:31.692Z,12.39
2022-11-13T11:14:21.002Z,12.39
2022-11-13T11:16:54.766Z,12.37
2022-11-13T11:19:31.995Z,12.40
2022-11-13T11:22:10.720Z,12.38
2022-11-13T11:24:51.340Z,12.40
2022-11-13T11:27:29.400Z,12.42
2022-11-13T11:30:07.806Z,12.43
2022-11-13T11:32:45.408Z,12.41
2022-11-13T11:35:22.075Z,12.42
2022-11-13T11:38:00.868Z,12.41
2022-11-13T11:40:39.727Z,12.43
2022-11-13T11:43:20.879Z,12.45
2022-11-13T11:45:55.634Z,12.45
2022-11-13T11:48:32.848Z,12.45
2022-11-13T11:51:15.968Z,12.45
2022-11-13T11:54:00.153Z,12.44
2022-11-13T11:56:36.478Z,12.41
2022-11-13T11:59:37.264Z,12.43
2022-11-13T12:02:53.573Z,12.45
2022-11-13T12:05:31.181Z,12.42
2022-11-13T12:08:16.186Z,12.43
2022-11-13T12:10:58.057Z,12.41
2022-11-13T12:13:31.470Z,12.40
2022-11-13T12:16:10.794Z,12.45
2022-11-13T12:18:52.641Z,12.45
2022-11-13T12:21:29.417Z,12.42
2022-11-13T12:24:29.098Z,12.44
2022-11-13T12:27:19.767Z,12.41
2022-11-13T12:30:05.588Z,12.38
2022-11-13T12:33:03.694Z,12.34
2022-11-13T12:35:39.938Z,12.30
2022-11-13T12:38:25.001Z,12.29
2022-11-13T12:41:04.634Z,12.27
2022-11-13T12:43:52.439Z,12.28
2022-11-13T12:46:35.283Z,12.31
2022-11-13T12:49:28.551Z,12.34
2022-11-13T12:52:05.518Z,12.36
2022-11-13T12:54:38.822Z,12.39
2022-11-13T12:57:24.443Z,12.42
2022-11-13T13:00:23.499Z,12.45
2022-11-13T13:03:16.716Z,12.47
2022-11-13T13:06:10.409Z,12.43
2022-11-13T13:08:57.748Z,12.43
2022-11-13T13:11:40.463Z,12.43
2022-11-13T13:14:26.921Z,12.39
2022-11-13T13:17:07.579Z,12.36
2022-11-13T13:19:41.030Z,12.34
2022-11-13T13:22:29.259Z,12.33
2022-11-13T13:25:10.582Z,12.31
2022-11-13T13:27:57.203Z,12.29
2022-11-13T13:30:37.680Z,12.30
2022-11-13T13:33:22.677Z,12.35
2022-11-13T13:36:03.994Z,12.35
2022-11-13T13:38:50.917Z,12.35
2022-11-13T13:41:41.769Z,12.35
2022-11-13T13:44:32.082Z,12.38
2022-11-13T13:47:14.061Z,12.37
2022-11-13T13:49:47.367Z,12.37
2022-11-13T13:52:25.123Z,12.37
2022-11-13T13:54:59.062Z,12.38
2022-11-13T13:57:33.530Z,12.40
2022-11-13T14:00:12.899Z,12.43
2022-11-13T14:02:48.571Z,12.43
2022-11-13T14:05:28.672Z,12.48
2022-11-13T14:08:07.716Z,12.48
2022-11-13T14:10:41.243Z,12.47
2022-11-13T14:13:16.477Z,12.48
2022-11-13T14:15:49.331Z,12.43
2022-11-13T14:18:22.394Z,12.45
2022-11-13T14:20:57.408Z,12.43
2022-11-13T14:23:33.585Z,12.42
2022-11-13T14:26:07.702Z,12.41
2022-11-13T14:29:24.054Z,12.42
2022-11-13T14:32:03.737Z,12.39
2022-11-13T14:34:38.265Z,12.40
2022-11-13T14:37:25.712Z,12.42
2022-11-13T14:40:02.147Z,12.39
2022-11-13T14:42:39.084Z,12.40
2022-11-13T14:45:19.586Z,12.39
2022-11-13T14:48:02.009Z,12.36
2022-11-13T14:50:38.535Z,12.33
2022-11-13T14:53:13.094Z,12.31
2022-11-13T14:55:52.660Z,12.30
2022-11-13T14:58:32.607Z,12.29
2022-11-13T15:01:19.399Z,12.25
2022-11-13T15:03:54.150Z,12.22
2022-11-13T15:06:35.764Z,12.20
2022-11-13T15:09:15.168Z,12.20
2022-11-13T15:11:48.284Z,12.18
2022-11-13T15:14:22.862Z,12.17
2022-11-13T15:16:58.821Z,12.16
2022-11-13T15:19:34.685Z,12.14
2022-11-13T15:22:27.700Z,12.15
2022-11-13T15:25:01.172Z,12.13
2022-11-13T15:27:42.895Z,12.16
2022-11-13T15:30:16.947Z,12.16
2022-11-13T15:32:54.205Z,12.16
2022-11-13T15:35:27.214Z,12.16
2022-11-13T15:38:00.142Z,12.13
2022-11-13T15:40:32.971Z,12.10
2022-11-13T15:43:06.303Z,12.08
2022-11-13T15:45:44.030Z,12.07
2022-11-13T15:48:18.887Z,12.07
2022-11-13T15:50:51.786Z,12.05
2022-11-13T15:53:24.929Z,12.04
2022-11-13T15:56:02.868Z,12.01
2022-11-13T15:58:35.712Z,11.98
2022-11-13T16:01:09.449Z,11.96
2022-11-13T16:03:43.872Z,11.92
2022-11-13T16:06:19.239Z,11.90
2022-11-13T16:08:52.123Z,11.85
2022-11-13T16:11:25.050Z,11.82
2022-11-13T16:13:57.919Z,11.79
2022-11-13T16:16:34.081Z,11.81
2022-11-13T16:19:14.731Z,11.79
2022-11-13T16:21:47.553Z,11.77
2022-11-13T16:24:24.083Z,11.78
2022-11-13T16:26:58.928Z,11.79
2022-11-13T16:29:31.802Z,11.77
2022-11-13T16:32:04.622Z,11.79
2022-11-13T16:34:39.704Z,11.80
2022-11-13T16:37:18.198Z,11.80
2022-11-13T16:39:52.061Z,11.79
2022-11-13T16:42:29.821Z,11.78
2022-11-13T16:45:03.750Z,11.76
2022-11-13T16:47:36.864Z,11.75
2022-11-13T16:50:17.611Z,11.76
2022-11-13T16:52:50.471Z,11.76
2022-11-13T16:55:23.591Z,11.73
2022-11-13T16:57:56.560Z,11.72
2022-11-13T17:00:29.413Z,11.69
2022-11-13T17:03:02.216Z,11.69
2022-11-13T17:05:36.734Z,11.69
2022-11-13T17:08:15.843Z,11.71
2022-11-13T17:11:00.088Z,11.70
2022-11-13T17:13:32.930Z,11.68
2022-11-13T17:16:08.691Z,11.68
2022-11-13T17:18:41.877Z,11.67
2022-11-13T17:21:16.985Z,11.67
2022-11-13T17:23:57.647Z,11.67
2022-11-13T17:26:31.650Z,11.66
2022-11-13T17:29:06.377Z,11.65
2022-11-13T17:31:39.293Z,11.68
2022-11-13T17:34:12.462Z,11.68
2022-11-13T17:36:46.742Z,11.71
2022-11-13T17:39:19.564Z,11.72
2022-11-13T17:41:52.396Z,11.72
2022-11-13T17:44:25.224Z,11.75
2022-11-13T17:46:58.138Z,11.77
2022-11-13T17:49:31.132Z,11.79
2022-11-13T17:52:05.569Z,11.82
2022-11-13T17:54:38.439Z,11.83
2022-11-13T17:57:11.723Z,11.85
2022-11-13T17:59:44.575Z,11.87
2022-11-13T18:02:17.451Z,11.89
2022-11-13T18:04:50.245Z,11.90
2022-11-13T18:07:24.549Z,11.95
2022-11-13T18:09:58.474Z,11.97
2022-11-13T18:12:34.244Z,11.99
2022-11-13T18:15:08.137Z,12.02
2022-11-13T18:17:40.965Z,12.03
2022-11-13T18:20:14.067Z,12.07
2022-11-13T18:22:48.522Z,12.08
2022-11-13T18:25:21.651Z,12.11
2022-11-13T18:27:54.679Z,12.12
2022-11-13T18:30:27.578Z,12.15
2022-11-13T18:33:00.480Z,12.17
2022-11-13T18:35:34.573Z,12.16
2022-11-13T18:38:08.843Z,12.18
2022-11-13T18:40:43.103Z,12.16
2022-11-13T18:43:16.397Z,12.18
2022-11-13T18:45:57.169Z,12.22
2022-11-13T18:48:33.913Z,12.20
2022-11-13T18:51:08.989Z,12.21
2022-11-13T18:53:45.712Z,12.22
2022-11-13T18:56:20.135Z,12.23
2022-11-13T18:58:54.654Z,12.24
2022-11-13T19:01:29.712Z,12.27
2022-11-13T19:04:22.417Z,12.27
2022-11-13T19:06:56.159Z,12.29
2022-11-13T19:09:30.698Z,12.30
2022-11-13T19:12:04.793Z,12.30
2022-11-13T19:14:37.706Z,12.32
2022-11-13T19:17:10.895Z,12.31
2022-11-13T19:19:44.577Z,12.32
2022-11-13T19:22:17.359Z,12.28
2022-11-13T19:24:51.750Z,12.26
2022-11-13T19:27:24.551Z,12.23
2022-11-13T19:29:57.780Z,12.22
2022-11-13T19:32:30.917Z,12.19
2022-11-13T19:35:03.882Z,12.16
2022-11-13T19:37:36.877Z,12.13
2022-11-13T19:40:12.987Z,12.13
2022-11-13T19:42:46.082Z,12.07
2022-11-13T19:45:19.492Z,12.06
2022-11-13T19:47:52.306Z,12.05
2022-11-13T19:50:27.410Z,12.05
2022-11-13T19:53:00.216Z,12.03
2022-11-13T19:55:35.298Z,12.06
2022-11-13T19:58:08.184Z,12.05
2022-11-13T20:00:41.064Z,12.07
2022-11-13T20:03:13.917Z,12.08
2022-11-13T20:05:47.186Z,12.08
2022-11-13T20:08:24.073Z,12.08
2022-11-13T20:11:04.441Z,12.11
2022-11-13T20:13:39.010Z,12.10
2022-11-13T20:16:14.737Z,12.11
2022-11-13T20:18:48.565Z,12.12
2022-11-13T20:21:26.706Z,12.14
2022-11-13T20:24:00.744Z,12.11
2022-11-13T20:26:35.094Z,12.11
2022-11-13T20:29:09.670Z,12.11
2022-11-13T20:31:43.510Z,12.12
2022-11-13T20:34:16.351Z,12.11
2022-11-13T20:36:50.233Z,12.12
2022-11-13T20:39:23.152Z,12.12
2022-11-13T20:41:58.208Z,12.11
2022-11-13T20:44:31.015Z,12.12
2022-11-13T20:47:04.049Z,12.11
2022-11-13T20:49:36.886Z,12.13
2022-11-13T20:52:10.948Z,12.12
2022-11-13T20:54:43.743Z,12.12
2022-11-13T20:57:21.333Z,12.14
2022-11-13T20:59:54.300Z,12.13
2022-11-13T21:02:27.281Z,12.12
2022-11-13T21:05:00.294Z,12.13
2022-11-13T21:07:33.499Z,12.13
2022-11-13T21:10:07.500Z,12.13
2022-11-13T21:12:41.972Z,12.14
2022-11-13T21:15:14.827Z,12.14
2022-11-13T21:17:47.701Z,12.14
2022-11-13T21:20:20.578Z,12.16
2022-11-13T21:22:53.440Z,12.16
2022-11-13T21:25:26.304Z,12.15
2022-11-13T21:28:00.526Z,12.15
2022-11-13T21:30:33.457Z,12.16
2022-11-13T21:33:06.404Z,12.14
2022-11-13T21:35:39.246Z,12.15
2022-11-13T21:38:12.356Z,12.15
2022-11-13T21:41:05.644Z,12.15
2022-11-13T21:43:39.963Z,12.16
2022-11-13T21:46:14.333Z,12.17
2022-11-13T21:48:47.683Z,12.16
2022-11-13T21:51:20.486Z,12.18
2022-11-13T21:53:53.632Z,12.18
2022-11-13T21:56:28.454Z,12.18
2022-11-13T21:59:02.843Z,12.19
2022-11-13T22:01:38.624Z,12.18
2022-11-13T22:04:11.780Z,12.18
2022-11-13T22:06:48.738Z,12.21
2022-11-13T22:09:24.125Z,12.19
2022-11-13T22:11:57.020Z,12.20
2022-11-13T22:14:31.282Z,12.19
2022-11-13T22:17:04.166Z,12.19
2022-11-13T22:19:37.026Z,12.20
2022-11-13T22:22:09.937Z,12.20
2022-11-13T22:24:42.910Z,12.19
2022-11-13T22:27:17.702Z,12.18
2022-11-13T22:29:52.538Z,12.17
2022-11-13T22:32:25.494Z,12.15
2022-11-13T22:34:58.333Z,12.16
2022-11-13T22:37:31.352Z,12.16
2022-11-13T22:40:04.423Z,12.14
2022-11-13T22:42:37.268Z,12.13
2022-11-13T22:45:23.339Z,12.16
2022-11-13T22:47:56.773Z,12.13
2022-11-13T22:50:29.647Z,12.13
2022-11-13T22:53:02.482Z,12.14
2022-11-13T22:55:36.426Z,12.15
2022-11-13T22:58:09.259Z,12.14
2022-11-13T23:00:43.719Z,12.14
2022-11-13T23:03:16.551Z,12.13
2022-11-13T23:05:49.724Z,12.14
2022-11-13T23:08:22.664Z,12.13
2022-11-13T23:10:56.682Z,12.13
2022-11-13T23:13:29.535Z,12.13
2022-11-13T23:16:03.990Z,12.14
2022-11-13T23:18:36.839Z,12.12
2022-11-13T23:21:11.243Z,12.12
2022-11-13T23:23:48.062Z,12.13
2022-11-13T23:26:21.180Z,12.12
2022-11-13T23:28:58.576Z,12.09
2022-11-13T23:31:43.715Z,12.08
2022-11-13T23:34:52.731Z,12.06
2022-11-13T23:37:15.797Z,12.01
2022-11-13T23:39:49.189Z,11.98
2022-11-13T23:42:39.218Z,11.97
2022-11-13T23:45:16.533Z,11.95
2022-11-13T23:47:52.806Z,11.90
2022-11-13T23:50:26.676Z,11.90
2022-11-13T23:52:59.760Z,11.86
2022-11-13T23:55:33.540Z,11.85
2022-11-13T23:58:15.078Z,11.84
